Nearby METAR Reports

 

KSFB - Sanford/Orlando, Florida, USA
Distance from station: E 8mi, 12km
Updated: Wed 02/21/18 5:53pm EST
Clear
Clear
 Wind from ESE
Wind: ESE 12 mph , 19 km/h
Temperature: 79°F , 26°C
Dew Point: 63°F , 17°C
Humidity: 58%
Barometer: 30.36 inHg , 1028.1 hPa
Clouds: Clear
Visibility: 10 miles , 16 km
2018/02/21 22:53 KSFB 212253Z 11010KT 10SM CLR 26/17 A3036 RMK AO2 SLP278 T02560172
KORL - Orlando, Florida, USA
Distance from station: S 15mi, 24km
Updated: Wed 02/21/18 5:53pm EST
Clear
Clear
 Wind from ESE
Wind: ESE 10 mph , 17 km/h
Temperature: 79°F , 26°C
Dew Point: 64°F , 18°C
Humidity: 61%
Barometer: 30.35 inHg , 1027.8 hPa
Clouds: Clear
Visibility: 10 miles , 16 km
2018/02/21 22:53 KORL 212253Z 11009KT 10SM CLR 26/18 A3035 RMK AO2 SLP280 T02610178
 
KDED - Deland, Florida, USA
Distance from station: N 21mi, 34km
Updated: Wed 02/21/18 5:55pm EST
Clear
Clear
 Wind from E
Wind: E 10 mph , 17 km/h
Temperature: 77°F , 25°C
Dew Point: 66°F , 19°C
Humidity: 69%
Barometer: 30.36 inHg , 1028.1 hPa
Clouds: Clear
Visibility: 10 miles , 16 km
2018/02/21 22:55 KDED 212255Z AUTO 10009KT 10SM CLR 25/19 A3036 RMK AO2
KMCO - Orlando, Florida, USA
Distance from station: S 24mi, 39km
Updated: Wed 02/21/18 5:53pm EST
Few Clouds
Few Clouds
 Wind from E
Wind: E 13 mph , 20 km/h
Temperature: 79°F , 26°C
Dew Point: 64°F , 18°C
Humidity: 61%
Barometer: 30.35 inHg , 1027.8 hPa
Clouds: Few Clouds
Visibility: 10 miles , 16 km
Cloud details: Few Clouds 5000 ft
2018/02/21 22:53 KMCO 212253Z 09011KT 10SM FEW050 26/18 A3035 RMK AO2 SLP275 T02560178
 
KLEE - Leesburg, Florida, USA
Distance from station: W 29mi, 47km
Updated: Wed 02/21/18 5:53pm EST
Clear
Clear
 Wind from E
Wind: E 9 mph , 15 km/h
Temperature: 81°F , 27°C
Heat Index: 82°F , 28°C
Dew Point: 63°F , 17°C
Humidity: 54%
Barometer: 30.34 inHg , 1027.4 hPa
Clouds: Clear
Visibility: 10 miles , 16 km
2018/02/21 22:53 KLEE 212253Z AUTO 10008KT 10SM CLR 27/17 A3034 RMK AO2 SLP272 T02720172
KEVB - New Smyrna Beach, Florida, USA
Distance from station: NE 31mi, 49km
Updated: Wed 02/21/18 5:50pm EST
Partly cloudy
Partly cloudy
 Wind from ESE
Wind: ESE 15 mph , 24 km/h
Temperature: 75°F , 24°C
Dew Point: 68°F , 20°C
Humidity: 78%
Barometer: 30.38 inHg , 1028.8 hPa
Clouds: Partly cloudy
Visibility: 10 miles , 16 km
Cloud details: Partly cloudy 1900 ft
2018/02/21 22:50 KEVB 212250Z 12013KT 10SM SCT019 24/20 A3038
 
KDAB - Daytona Beach, Florida, USA
Distance from station: NNE 33mi, 53km
Updated: Wed 02/21/18 5:53pm EST
Few Clouds
Few Clouds
 Wind from ESE
Wind: ESE 8 mph , 13 km/h
Temperature: 75°F , 24°C
Dew Point: 68°F , 20°C
Humidity: 78%
Barometer: 30.37 inHg , 1028.4 hPa
Clouds: Few Clouds
Visibility: 10 miles , 16 km
Cloud details: Few Clouds 2100 ft
2018/02/21 22:53 KDAB 212253Z 11007KT 090V150 10SM FEW021 24/20 A3037 RMK AO2 SLP283 T02390200
KISM - Kissimmee/Orland, Florida, USA
Distance from station: S 34mi, 55km
Updated: Wed 02/21/18 5:56pm EST
Clear
Clear
 Wind from ESE
Wind: ESE 13 mph , 20 km/h
Temperature: 79°F , 26°C
Dew Point: 64°F , 18°C
Humidity: 61%
Barometer: 30.35 inHg , 1027.8 hPa
Clouds: Clear
Visibility: 10 miles , 16 km
2018/02/21 22:56 KISM 212256Z 11011KT 10SM CLR 26/18 A3035 RMK AO2 SLP278 T02610183
 
KTIX - Titusville, Florida, USA
Distance from station: ESE 38mi, 61km
Updated: Wed 02/21/18 5:52pm EST
Partly cloudy
Partly cloudy
 Wind from ESE
Wind: ESE 12 mph , 19 km/h
Temperature: 79°F , 26°C
Dew Point: 68°F , 20°C
Humidity: 70%
Barometer: 30.37 inHg , 1028.4 hPa
Clouds: Partly cloudy
Visibility: 7 miles , 11 km
Cloud details: Partly cloudy 2500 ft
Partly cloudy 3800 ft
2018/02/21 22:52 KTIX 212252Z 11010KT 7SM SCT025 SCT038 26/20 A3037
KOMN - Ormond Beach Vor, Florida, USA
Distance from station: NNE 39mi, 63km
Updated: Wed 02/21/18 4:50pm EST
NOT Current
Clear
Clear
 Wind from ESE
Wind: ESE 12 mph , 19 km/h, Gust: 17 mph , 28 km/h
Temperature: 75°F , 24°C
Dew Point: 66°F , 19°C
Humidity: 74%
Barometer: 30.36 inHg , 1028.1 hPa
Clouds: Clear
Visibility: 10 miles , 16 km
2018/02/21 21:50 KOMN 212150Z 11010G15KT 10SM SKC 24/19 A3036
 
KTTS - Nasa Shuttle Fcl, Florida, USA
Distance from station: ESE 39mi, 63km
Updated: Wed 02/21/18 5:56pm EST
Partly cloudy
Partly cloudy
 Wind from SE
Wind: SE 6 mph , 9 km/h
Temperature: 75°F , 24°C
Dew Point: 72°F , 22°C
Humidity: 89%
Barometer: 30.36 inHg , 1028.1 hPa
Clouds: Partly cloudy
Visibility: 10 miles , 16 km
Cloud details: Partly cloudy 1900 ft
2018/02/21 22:56 KTTS 212256Z AUTO 13005KT 10SM SCT019 24/22 A3036 RMK AO2 SLP285 T02400224 $
KVVG - The Villages, Florida, USA
Distance from station: WNW 40mi, 64km
Updated: Wed 02/14/18 2:10pm EST
NOT Current

 Wind from calm
Wind: Calm
Temperature: 73°F , 23°C
Dew Point: 66°F , 19°C
Humidity: 78%
Barometer: 30.29 inHg , 1025.7 hPa
Visibility: 10 miles , 16 km
2018/02/14 19:10 KVVG 141910Z AUTO 00000KT 10SM 23/19 A3029 RMK A01
 
KXMR - Cape Canaveral, Florida, USA
Distance from station: ESE 51mi, 83km
Updated: Wed 02/21/18 5:56pm EST
Clear
Clear
 Wind from ESE
Wind: ESE 7 mph , 11 km/h
Temperature: 75°F , 24°C
Dew Point: 68°F , 20°C
Humidity: 78%
Barometer: 30.35 inHg , 1027.8 hPa
Clouds: Clear
Visibility: 10 miles , 16 km
2018/02/21 22:56 KXMR 212256Z AUTO 11006KT 10SM CLR 24/20 A3035 RMK AO2 SLP281 T02390202 $
KGIF - Winter Haven, Florida, USA
Distance from station: SSW 55mi, 88km
Updated: Wed 02/21/18 5:53pm EST
Clear
Clear
 Wind from E
Wind: E 14 mph , 22 km/h
Temperature: 81°F , 27°C
Heat Index: 82°F , 28°C
Dew Point: 63°F , 17°C
Humidity: 54%
Barometer: 30.33 inHg , 1027.1 hPa
Clouds: Clear
Visibility: 10 miles , 16 km
2018/02/21 22:53 KGIF 212253Z AUTO 10012KT 10SM CLR 27/17 A3033 RMK AO2 SLP269 T02720172
 
KCOF - Patrick Afb/Coco, Florida, USA
Distance from station: SE 58mi, 94km
Updated: Wed 02/21/18 5:56pm EST
Clear
Clear
 Wind from ESE
Wind: ESE 8 mph , 13 km/h
Temperature: 75°F , 24°C
Dew Point: 72°F , 22°C
Humidity: 89%
Barometer: 30.36 inHg , 1028.1 hPa
Clouds: Clear
Visibility: 10 miles , 16 km
2018/02/21 22:56 KCOF 212256Z AUTO 11007KT 10SM CLR 24/22 A3036 RMK AO2 SLP285 T02390223 $
KINF - Inverness, Florida, USA
Distance from station: W 59mi, 95km
Updated: Wed 02/21/18 5:55pm EST
Partly cloudy
Partly cloudy
 Wind from ESE
Wind: ESE 3 mph , 6 km/h
Temperature: 81°F , 27°C
Heat Index: 83°F , 28°C
Dew Point: 64°F , 18°C
Humidity: 58%
Barometer: 30.32 inHg , 1026.8 hPa
Clouds: Partly cloudy
Visibility: 10 miles , 16 km
Cloud details: Partly cloudy 5500 ft
2018/02/21 22:55 KINF 212255Z AUTO 11003KT 10SM SCT055 27/18 A3032 RMK AO2
 
KOCF - Ocala Muni, Florida, USA
Distance from station: WNW 60mi, 96km
Updated: Wed 02/21/18 5:51pm EST
Partly cloudy
Partly cloudy
 Wind from varies
Wind: varies 3 mph , 6 km/h
Temperature: 82°F , 28°C
Heat Index: 83°F , 28°C
Dew Point: 63°F , 17°C
Humidity: 51%
Barometer: 30.33 inHg , 1027.1 hPa
Clouds: Partly cloudy
Visibility: 10 miles , 16 km
Cloud details: Partly cloudy 6500 ft
2018/02/21 22:51 KOCF 212251Z VRB03KT 10SM SCT065 28/17 A3033 RMK AO2 SLP271 T02830172
KZPH - Zephyrhills, Florida, USA
Distance from station: SW 61mi, 99km
Updated: Wed 02/21/18 5:55pm EST
Clear
Clear
 Wind from E
Wind: E 8 mph , 13 km/h
Temperature: 82°F , 28°C
Heat Index: 83°F , 28°C
Dew Point: 63°F , 17°C
Humidity: 51%
Barometer: 30.32 inHg , 1026.8 hPa
Clouds: Clear
Visibility: 10 miles , 16 km
2018/02/21 22:55 KZPH 212255Z AUTO 10007KT 10SM CLR 28/17 A3032 RMK AO2 T02770168
 
KMLB - Melbourne, Florida, USA
Distance from station: SE 62mi, 100km
Updated: Wed 02/21/18 5:53pm EST
Partly cloudy
Partly cloudy
 Wind from ESE
Wind: ESE 12 mph , 19 km/h
Temperature: 79°F , 26°C
Dew Point: 68°F , 20°C
Humidity: 70%
Barometer: 30.35 inHg , 1027.8 hPa
Clouds: Partly cloudy
Visibility: 10 miles , 16 km
Cloud details: Partly cloudy 2400 ft
2018/02/21 22:53 KMLB 212253Z 12010KT 10SM SCT024 26/20 A3035 RMK AO2 SLP277 T02560200
KBOW - Bartow Municipal, Florida, USA
Distance from station: SSW 63mi, 102km
Updated: Wed 02/21/18 5:35pm EST
Mostly cloudy
Mostly cloudy
 Wind from E
Wind: E 10 mph , 17 km/h
Temperature: 81°F , 27°C
Heat Index: 82°F , 28°C
Dew Point: 63°F , 17°C
Humidity: 54%
Barometer: 30.32 inHg , 1026.8 hPa
Clouds: Mostly cloudy
Visibility: 10 miles , 16 km
Cloud details: Mostly cloudy 5500 ft
2018/02/21 22:35 KBOW 212235Z AUTO 08009KT 10SM BKN055 27/17 A3032 RMK AO2